Time;durP1;ratioP1;P1;durP2;ratioP2;P2;SDS_P1;SDS_P2;PMS_P1;PMS_P2;Temp;Humidity;BMP_temperature;BMP_pressure;BME280_temperature;BME280_humidity;BME280_pressure;Samples;Min_cycle;Max_cycle;Signal;HPM_P1;HPM_P2
2022/06/19 00:02:10;;;;;;;2.93;2.10;;;;;;;10.71;76.05;96168.11;1762605;81;21027;-66
2022/06/19 00:04:37;;;;;;;1.90;1.70;;;;;;;10.74;75.72;96164.14;1762400;81;21019;-66
2022/06/19 00:07:04;;;;;;;2.47;1.80;;;;;;;10.70;76.46;96166.38;1762620;81;20999;-66
2022/06/19 00:09:31;;;;;;;3.07;1.60;;;;;;;10.76;75.88;96161.02;1762478;81;21026;-66
2022/06/19 00:11:58;;;;;;;3.17;1.60;;;;;;;10.78;75.43;96160.56;1762090;81;21019;-66
2022/06/19 00:14:25;;;;;;;3.00;1.90;;;;;;;10.72;75.60;96161.51;1762585;81;21532;-66
2022/06/19 00:16:51;;;;;;;3.33;1.80;;;;;;;10.67;76.26;96163.31;1762579;81;21054;-66
2022/06/19 00:19:18;;;;;;;2.87;1.90;;;;;;;10.74;76.05;96157.55;1762384;81;21027;-66
2022/06/19 00:21:46;;;;;;;1.83;1.70;;;;;;;10.72;76.22;96164.59;1762590;81;20986;-66
2022/06/19 00:24:13;;;;;;;2.07;1.83;;;;;;;10.68;75.79;96161.09;1762144;81;21114;-66
2022/06/19 00:26:39;;;;;;;1.60;1.47;;;;;;;10.64;76.22;96166.45;1762362;81;21046;-66
2022/06/19 00:29:06;;;;;;;2.00;1.70;;;;;;;10.63;76.25;96167.31;1762919;81;21007;-66
2022/06/19 00:31:33;;;;;;;2.70;1.70;;;;;;;10.66;75.68;96168.59;1762486;81;21508;-66
2022/06/19 00:34:00;;;;;;;1.87;1.60;;;;;;;10.70;75.64;96163.28;1762562;81;21557;-66
2022/06/19 00:36:27;;;;;;;3.20;1.77;;;;;;;10.67;75.27;96163.31;1762426;81;21552;-66
2022/06/19 00:38:56;;;;;;;3.33;1.90;;;;;;;10.66;74.85;96165.54;1762639;81;21023;-66
2022/06/19 00:41:25;;;;;;;2.90;1.73;;;;;;;10.59;75.56;96164.71;1762475;81;21054;-66
2022/06/19 00:44:04;;;;;;;8.13;1.90;;;;;;;10.63;74.99;96157.63;1763766;81;21536;-66
2022/06/19 00:47:00;;;;;;;1.77;1.47;;;;;;;10.66;75.26;96153.66;1766281;81;22131;-66
2022/06/19 00:49:35;;;;;;;2.03;1.70;;;;;;;10.55;75.67;96156.38;1766490;81;21081;-66
2022/06/19 00:52:22;;;;;;;1.93;1.73;;;;;;;10.53;75.68;96158.61;1766554;81;21066;-66
2022/06/19 00:55:02;;;;;;;2.00;1.80;;;;;;;10.47;76.24;96162.19;1766379;81;20975;-66
2022/06/19 00:57:32;;;;;;;1.50;1.40;;;;;;;10.48;75.96;96158.67;1766301;81;21003;-66
2022/06/19 01:00:14;;;;;;;3.40;1.80;;;;;;;10.52;76.33;96152.46;1766330;81;21058;-66
2022/06/19 01:02:43;;;;;;;2.27;1.80;;;;;;;10.51;76.34;96148.09;1766381;81;21090;-66
2022/06/19 01:05:13;;;;;;;2.03;1.80;;;;;;;10.50;75.74;96159.96;1766368;81;21014;-66
2022/06/19 01:07:43;;;;;;;2.63;1.80;;;;;;;10.42;75.98;96158.72;1766243;81;21003;-66
2022/06/19 01:10:12;;;;;;;3.33;1.80;;;;;;;10.38;76.02;96159.62;1766393;81;20997;-66
2022/06/19 01:12:43;;;;;;;3.27;1.63;;;;;;;10.33;76.73;96158.78;1766281;81;21456;-66
2022/06/19 01:15:13;;;;;;;2.87;2.07;;;;;;;10.25;76.43;96154.86;1766369;81;21029;-66
2022/06/19 01:17:40;;;;;;;2.70;1.83;;;;;;;10.19;77.00;96154.47;1766473;81;20963;-66
2022/06/19 01:20:11;;;;;;;2.90;2.07;;;;;;;10.16;77.66;96152.32;1766357;81;21456;-66
2022/06/19 01:23:24;;;;;;;3.20;1.90;;;;;;;10.18;77.50;96153.19;1766625;81;21002;-66
2022/06/19 01:25:53;;;;;;;2.57;1.80;;;;;;;10.15;77.47;96155.41;1766140;81;21079;-66
2022/06/19 01:31:19;;;;;;;2.40;2.00;;;;;;;10.06;76.56;96157.23;1766513;81;21503;-66
2022/06/19 01:33:51;;;;;;;2.63;2.30;;;;;;;10.05;76.56;96158.10;1766659;81;21062;-66
2022/06/19 01:36:21;;;;;;;3.47;2.00;;;;;;;10.01;76.87;96159.90;1766351;81;21018;-66
2022/06/19 01:38:52;;;;;;;3.57;2.17;;;;;;;10.02;77.09;96162.09;1766479;81;20999;-66
2022/06/19 01:41:31;;;;;;;2.27;1.90;;;;;;;10.01;77.27;96159.90;1766081;81;21042;-66
2022/06/19 01:43:58;;;;;;;2.33;1.90;;;;;;;9.99;77.15;96156.84;1765297;81;21062;-66
2022/06/19 01:46:27;;;;;;;2.10;1.70;;;;;;;9.95;76.94;96155.55;1762474;81;21026;-66
2022/06/19 01:48:56;;;;;;;2.10;1.80;;;;;;;9.91;78.03;96156.90;1762649;81;21062;-66
2022/06/19 01:51:24;;;;;;;4.83;1.90;;;;;;;9.94;77.90;96158.19;1762716;81;21058;-66
2022/06/19 01:54:06;;;;;;;2.53;1.73;;;;;;;9.88;77.89;96155.16;1762729;81;21010;-66
2022/06/19 01:56:33;;;;;;;2.40;1.80;;;;;;;9.87;77.97;96159.98;1762404;81;21057;-66
2022/06/19 01:59:10;;;;;;;3.70;1.83;;;;;;;9.95;78.01;96161.24;1762471;81;20983;-66
2022/06/19 02:01:39;;;;;;;1.70;1.60;;;;;;;10.02;77.78;96165.59;1762805;81;20971;-66
2022/06/19 02:04:07;;;;;;;4.73;1.83;;;;;;;10.03;77.93;96166.45;1762737;81;21054;-66
2022/06/19 02:06:49;;;;;;;3.90;2.70;;;;;;;9.96;77.70;96163.88;1762723;81;21038;-66
2022/06/19 02:09:19;;;;;;;5.83;3.60;;;;;;;9.92;76.93;96161.27;1762720;81;20994;-66
2022/06/19 02:11:46;;;;;;;3.93;2.30;;;;;;;9.83;76.83;96159.59;1762628;81;21495;-66
2022/06/19 02:14:15;;;;;;;2.70;2.27;;;;;;;9.82;77.38;96154.31;1762455;81;21026;-66
2022/06/19 02:16:45;;;;;;;1.83;1.63;;;;;;;9.83;77.06;96154.32;1762557;81;21034;-66
2022/06/19 02:19:12;;;;;;;2.63;2.00;;;;;;;9.86;77.00;96154.29;1762677;81;21038;-66
2022/06/19 02:21:52;;;;;;;1.63;1.50;;;;;;;9.81;76.72;96149.49;1762678;81;20943;-66
2022/06/19 02:24:24;;;;;;;2.97;2.30;;;;;;;9.85;77.44;96149.92;1762326;81;21557;-66
2022/06/19 02:26:51;;;;;;;2.50;2.27;;;;;;;9.94;78.05;96151.59;1762405;81;21029;-67
2022/06/19 02:29:20;;;;;;;6.13;3.83;;;;;;;10.06;77.82;96152.83;1762657;81;21022;-66
2022/06/19 02:31:52;;;;;;;4.53;3.43;;;;;;;10.13;77.08;96159.81;1762752;81;21034;-66
2022/06/19 02:34:33;;;;;;;4.30;3.00;;;;;;;10.09;76.53;96159.84;1762609;81;21493;-66
2022/06/19 02:37:04;;;;;;;3.87;3.10;;;;;;;10.06;76.48;96154.59;1762737;81;20998;-66
2022/06/19 02:40:00;;;;;;;2.07;1.77;;;;;;;9.92;76.94;96152.91;1762444;81;21082;-66
2022/06/19 02:42:46;;;;;;;3.13;2.17;;;;;;;9.87;76.85;96157.34;1762681;81;21033;-66
2022/06/19 02:45:21;;;;;;;1.77;1.60;;;;;;;9.82;77.71;96155.63;1732536;81;21069;-66
2022/06/19 02:47:50;;;;;;;1.77;1.60;;;;;;;9.88;77.65;96157.80;1766589;81;21013;-66
2022/06/19 02:50:22;;;;;;;6.90;2.53;;;;;;;9.89;77.89;96162.17;1766335;81;21034;-66
2022/06/19 02:52:50;;;;;;;2.80;2.20;;;;;;;9.96;78.01;96170.92;1765647;81;21506;-66
2022/06/19 02:55:18;;;;;;;3.93;2.60;;;;;;;9.91;78.05;96176.22;1766488;81;20987;-66
2022/06/19 02:57:46;;;;;;;3.20;2.60;;;;;;;10.01;78.08;96175.72;1766396;81;21046;-66
2022/06/19 03:00:23;;;;;;;2.70;1.63;;;;;;;10.02;77.57;96176.14;1766242;81;21493;-66
2022/06/19 03:02:55;;;;;;;2.50;1.70;;;;;;;9.98;78.19;96171.80;1766617;81;21001;-66
2022/06/19 03:05:26;;;;;;;2.37;2.17;;;;;;;10.00;78.04;96180.53;1766273;81;21021;-66
2022/06/19 03:07:53;;;;;;;3.40;2.40;;;;;;;9.98;77.71;96181.02;1766389;81;20975;-66
2022/06/19 03:10:20;;;;;;;3.03;2.50;;;;;;;9.86;77.95;96178.02;1766432;81;21015;-66
2022/06/19 03:12:47;;;;;;;2.60;2.00;;;;;;;9.87;77.93;96173.16;1766045;81;21491;-66
2022/06/19 03:15:17;;;;;;;2.47;1.97;;;;;;;9.93;78.45;96178.41;1766175;81;21094;-66
2022/06/19 03:17:43;;;;;;;3.20;2.47;;;;;;;9.96;79.15;96176.20;1766388;81;21030;-66
2022/06/19 03:20:18;;;;;;;2.80;2.00;;;;;;;9.97;78.47;96171.34;1765951;81;20990;-66
2022/06/19 03:22:45;;;;;;;3.50;1.83;;;;;;;9.99;78.88;96172.66;1766384;81;21425;-66
2022/06/19 03:25:11;;;;;;;4.10;2.17;;;;;;;10.00;79.15;96171.77;1766360;81;21018;-66
2022/06/19 03:27:38;;;;;;;4.17;1.97;;;;;;;10.06;79.04;96168.65;1766257;81;20983;-66
2022/06/19 03:30:07;;;;;;;2.33;1.90;;;;;;;10.15;79.92;96165.05;1766400;81;20998;-66
2022/06/19 03:32:33;;;;;;;2.57;2.37;;;;;;;10.26;79.49;96165.86;1766298;81;21010;-66
2022/06/19 03:35:00;;;;;;;2.10;1.80;;;;;;;10.38;79.01;96170.17;1766309;81;21014;-66
2022/06/19 03:37:27;;;;;;;2.40;2.20;;;;;;;10.48;79.05;96167.91;1766512;81;21006;-66
2022/06/19 03:39:54;;;;;;;2.80;2.40;;;;;;;10.53;78.77;96162.14;1766050;81;21034;-66
2022/06/19 03:42:20;;;;;;;3.03;2.43;;;;;;;10.56;79.08;96158.61;1766197;81;21501;-66
2022/06/19 03:44:47;;;;;;;3.13;2.20;;;;;;;10.65;79.05;96156.30;1764834;81;21058;-66
2022/06/19 03:47:21;;;;;;;2.80;2.60;;;;;;;10.72;78.91;96152.72;1762619;81;21026;-66
2022/06/19 03:49:49;;;;;;;2.37;2.17;;;;;;;10.82;78.97;96150.41;1762315;81;21023;-67
2022/06/19 03:52:16;;;;;;;2.93;2.50;;;;;;;10.93;78.29;96145.88;1762465;81;20995;-66
2022/06/19 03:54:43;;;;;;;5.23;2.10;;;;;;;11.08;77.81;96143.96;1762280;81;20979;-66
2022/06/19 03:57:12;;;;;;;6.33;4.03;;;;;;;11.17;77.28;96138.58;1762663;81;21053;-66
2022/06/19 03:59:39;;;;;;;9.10;5.00;;;;;;;11.28;77.21;96137.98;1762610;81;21011;-66
2022/06/19 04:02:08;;;;;;;4.20;3.80;;;;;;;11.40;76.89;96136.96;1762260;81;21027;-66
2022/06/19 04:04:39;;;;;;;3.43;3.10;;;;;;;11.53;76.52;96128.42;1762668;81;21018;-66
2022/06/19 04:07:07;;;;;;;3.23;2.90;;;;;;;11.65;75.82;96135.73;1762795;81;21029;-66
2022/06/19 04:09:34;;;;;;;2.70;2.30;;;;;;;11.82;75.45;96134.63;1762384;81;21011;-66
2022/06/19 04:12:01;;;;;;;2.70;2.30;;;;;;;11.98;75.03;96138.81;1761980;81;21018;-66
2022/06/19 04:14:28;;;;;;;2.83;2.43;;;;;;;12.11;74.79;96132.88;1762474;81;21003;-66
2022/06/19 04:16:54;;;;;;;4.40;2.57;;;;;;;12.21;76.43;96138.89;1762529;81;20967;-66
2022/06/19 04:19:21;;;;;;;3.80;2.40;;;;;;;12.22;77.01;96134.02;1762472;81;21007;-66
2022/06/19 04:21:49;;;;;;;2.62;2.42;;;;;;;12.28;75.14;96133.93;1762561;81;20991;-66
2022/06/19 04:24:20;;;;;;;2.65;2.27;;;;;;;12.47;75.92;96135.38;1762322;81;21019;-66
2022/06/19 04:26:47;;;;;;;3.20;2.20;;;;;;;12.68;74.96;96134.11;1762496;81;21492;-66
2022/06/19 04:29:16;;;;;;;3.65;2.58;;;;;;;12.87;75.26;96135.95;1762378;81;21022;-67
2022/06/19 04:31:44;;;;;;;3.37;2.67;;;;;;;13.11;74.84;96129.31;1762273;81;21065;-66
2022/06/19 04:34:11;;;;;;;3.30;2.55;;;;;;;13.31;74.41;96128.09;1762533;81;21465;-66
2022/06/19 04:36:38;;;;;;;3.98;2.70;;;;;;;13.46;72.95;96127.76;1762478;81;21488;-66
2022/06/19 04:39:05;;;;;;;3.72;2.60;;;;;;;13.59;73.12;96135.86;1762696;81;21328;-66
2022/06/19 04:41:36;;;;;;;3.05;2.35;;;;;;;13.72;72.96;96131.16;1762489;81;20983;-66
2022/06/19 04:44:07;;;;;;;3.60;2.40;;;;;;;13.81;73.00;96130.09;1762108;81;21050;-66
2022/06/19 04:46:34;;;;;;;3.22;2.62;;;;;;;13.85;72.60;96129.09;1762548;81;21078;-66
2022/06/19 04:49:00;;;;;;;2.67;2.17;;;;;;;13.94;72.27;96126.70;1762777;81;21034;-66
2022/06/19 04:51:27;;;;;;;3.10;2.80;;;;;;;14.05;72.14;96122.00;1762099;81;21030;-66
2022/06/19 04:53:53;;;;;;;2.58;2.22;;;;;;;14.18;71.63;96125.23;1762343;81;21019;-66
2022/06/19 04:56:21;;;;;;;2.60;2.40;;;;;;;14.29;70.84;96125.39;1762334;81;20983;-66
2022/06/19 04:58:49;;;;;;;2.80;2.33;;;;;;;14.41;71.13;96125.56;1762226;81;21002;-66
2022/06/19 05:01:26;;;;;;;2.87;2.13;;;;;;;14.51;71.00;96120.86;1762641;81;21018;-66
2022/06/19 05:03:57;;;;;;;2.33;2.02;;;;;;;14.62;70.55;96119.31;1757536;81;21150;-66
2022/06/19 05:06:25;;;;;;;4.17;2.20;;;;;;;14.77;70.39;96118.04;1762483;81;21480;-66
2022/06/19 05:08:53;;;;;;;3.45;3.10;;;;;;;14.89;69.96;96111.94;1762578;81;21053;-66
2022/06/19 05:11:21;;;;;;;2.33;2.12;;;;;;;15.06;69.67;96118.09;1762559;81;21500;-66
2022/06/19 05:13:48;;;;;;;2.52;2.00;;;;;;;15.18;68.46;96109.38;1762213;81;21022;-66
2022/06/19 05:16:22;;;;;;;2.80;2.02;;;;;;;15.27;67.60;96107.33;1762334;81;21552;-66
2022/06/19 05:18:52;;;;;;;2.12;1.92;;;;;;;15.40;67.66;96103.86;1762570;81;21010;-66
2022/06/19 05:21:20;;;;;;;2.30;1.98;;;;;;;15.54;67.54;96105.63;1762627;81;20974;-66
2022/06/19 05:23:48;;;;;;;2.30;2.10;;;;;;;15.68;66.58;96105.69;1762550;81;21002;-66
2022/06/19 05:26:24;;;;;;;2.08;1.82;;;;;;;15.84;66.47;96105.65;1762388;81;21026;-66
2022/06/19 05:28:53;;;;;;;2.58;1.90;;;;;;;15.98;65.90;96105.23;1762408;81;21049;-66
2022/06/19 05:31:20;;;;;;;3.40;2.15;;;;;;;16.12;65.63;96104.78;1762244;81;21094;-66
2022/06/19 05:33:47;;;;;;;2.10;1.65;;;;;;;16.29;65.00;96106.91;1762604;81;21010;-66
2022/06/19 05:36:15;;;;;;;2.37;1.70;;;;;;;16.44;64.24;96105.92;1762423;81;21053;-66
2022/06/19 05:38:42;;;;;;;2.20;2.00;;;;;;;16.59;63.49;96113.86;1762525;81;21070;-66
2022/06/19 05:41:09;;;;;;;3.70;1.72;;;;;;;16.75;64.03;96117.33;1762202;81;21023;-66
2022/06/19 05:43:37;;;;;;;2.67;1.80;;;;;;;16.91;64.08;96115.92;1762368;81;21038;-66
2022/06/19 05:46:08;;;;;;;2.00;1.80;;;;;;;17.07;63.83;96114.91;1764763;81;21030;-66
2022/06/19 05:48:36;;;;;;;3.47;2.10;;;;;;;17.21;61.79;96107.73;1766139;81;21069;-66
2022/06/19 05:51:13;;;;;;;2.20;2.00;;;;;;;17.34;61.66;96115.70;1766330;81;21082;-66
2022/06/19 05:53:44;;;;;;;2.65;1.90;;;;;;;17.45;62.14;96113.97;1766201;81;21049;-66
2022/06/19 05:56:11;;;;;;;2.20;2.00;;;;;;;17.63;62.30;96118.60;1766084;81;21528;-66
2022/06/19 05:58:39;;;;;;;2.70;1.95;;;;;;;17.80;62.13;96118.47;1766336;81;21042;-66
2022/06/19 06:01:06;;;;;;;3.30;1.95;;;;;;;17.95;62.14;96114.73;1766214;81;21042;-66
2022/06/19 06:03:33;;;;;;;3.60;1.80;;;;;;;18.09;61.80;96110.19;1766434;81;21500;-66
2022/06/19 06:06:03;;;;;;;2.72;2.08;;;;;;;18.24;61.58;96113.16;1766601;81;21060;-66
2022/06/19 06:08:31;;;;;;;2.40;1.80;;;;;;;18.39;61.75;96107.18;1766250;81;21490;-66
2022/06/19 06:10:58;;;;;;;1.85;1.70;;;;;;;18.56;61.57;96111.84;1766368;81;21023;-66
2022/06/19 06:13:25;;;;;;;2.17;1.85;;;;;;;18.70;61.08;96104.59;1766637;81;21011;-66
2022/06/19 06:15:52;;;;;;;3.85;1.70;;;;;;;18.85;57.78;96098.62;1766492;81;21007;-66
2022/06/19 06:18:19;;;;;;;2.20;1.72;;;;;;;19.00;59.93;96095.75;1766224;81;21023;-66
2022/06/19 06:20:58;;;;;;;3.42;1.80;;;;;;;19.17;58.99;96093.64;1766483;81;21006;-66
2022/06/19 06:23:27;;;;;;;3.10;1.72;;;;;;;19.34;58.45;96087.55;1766184;81;21508;-66
2022/06/19 06:26:11;;;;;;;2.05;1.90;;;;;;;19.50;58.52;96090.37;1766585;81;20975;-66
2022/06/19 06:28:41;;;;;;;1.70;1.60;;;;;;;19.65;58.03;96091.00;1766192;81;21017;-66
2022/06/19 06:31:08;;;;;;;1.75;1.65;;;;;;;19.81;57.61;96083.18;1766355;81;21484;-66
2022/06/19 06:33:36;;;;;;;2.58;1.90;;;;;;;19.95;56.71;96081.17;1766235;81;21408;-66
2022/06/19 06:36:04;;;;;;;3.30;1.80;;;;;;;20.09;56.13;96085.41;1766569;81;20998;-67
2022/06/19 06:38:31;;;;;;;2.90;1.80;;;;;;;20.25;56.56;96072.98;1766459;81;20978;-66
2022/06/19 06:40:57;;;;;;;2.58;1.80;;;;;;;20.41;56.22;96071.77;1766413;81;21011;-67
2022/06/19 06:43:25;;;;;;;1.70;1.60;;;;;;;20.58;54.46;96066.05;1766011;81;21026;-66
2022/06/19 06:45:52;;;;;;;2.85;1.22;;;;;;;20.74;53.79;96065.69;1766269;81;21066;-66
2022/06/19 06:48:20;;;;;;;3.92;1.40;;;;;;;20.88;52.84;96060.45;1766469;81;21002;-67
2022/06/19 06:50:47;;;;;;;1.75;1.45;;;;;;;21.02;49.34;96064.25;1766468;81;21065;-66
2022/06/19 06:53:14;;;;;;;2.02;1.40;;;;;;;21.16;47.68;96061.20;1766220;81;21086;-66
2022/06/19 06:55:43;;;;;;;4.90;1.82;;;;;;;21.30;50.21;96067.20;1766647;81;21009;-66
2022/06/19 06:58:11;;;;;;;2.70;1.55;;;;;;;21.43;48.33;96066.58;1765946;81;21556;-67
2022/06/19 07:00:39;;;;;;;3.15;1.85;;;;;;;21.59;46.36;96069.66;1766560;81;21033;-66
2022/06/19 07:03:06;;;;;;;2.02;1.40;;;;;;;21.72;47.18;96063.17;1766197;81;21038;-67
2022/06/19 07:05:33;;;;;;;2.90;1.70;;;;;;;21.88;47.76;96060.97;1766479;81;21078;-66
2022/06/19 07:08:00;;;;;;;4.85;1.52;;;;;;;22.02;47.08;96061.05;1766576;81;21002;-66
2022/06/19 07:10:28;;;;;;;3.40;1.60;;;;;;;22.16;45.59;96054.91;1766418;81;21495;-66
2022/06/19 07:12:55;;;;;;;3.20;1.60;;;;;;;22.31;46.41;96062.59;1766224;81;21548;-66
2022/06/19 07:15:23;;;;;;;2.12;1.60;;;;;;;22.44;46.35;96051.03;1766598;81;20983;-66
2022/06/19 07:17:50;;;;;;;1.57;1.47;;;;;;;22.55;44.19;96053.08;1766106;81;21149;-67
2022/06/19 07:20:17;;;;;;;3.35;1.40;;;;;;;22.63;44.32;96048.62;1765997;81;21030;-67
2022/06/19 07:22:43;;;;;;;1.50;1.40;;;;;;;22.79;42.82;96060.67;1766312;81;21014;-66
2022/06/19 07:25:17;;;;;;;2.67;1.40;;;;;;;22.91;43.38;96063.98;1766388;81;21014;-67
2022/06/19 07:27:45;;;;;;;1.98;1.87;;;;;;;23.01;41.74;96054.91;1766025;81;21054;-67
2022/06/19 07:30:16;;;;;;;1.98;1.85;;;;;;;23.11;42.25;96052.91;1766395;81;21055;-67
2022/06/19 07:32:43;;;;;;;7.83;1.50;;;;;;;23.22;40.52;96054.93;1766277;81;21062;-67
2022/06/19 07:35:11;;;;;;;1.60;1.50;;;;;;;23.29;38.73;96052.25;1766437;81;21019;-66
2022/06/19 07:37:37;;;;;;;1.47;1.37;;;;;;;23.28;36.94;96049.19;1766535;81;21034;-66
2022/06/19 07:40:06;;;;;;;1.87;1.40;;;;;;;23.25;36.60;96050.70;1766211;81;21512;-67
2022/06/19 07:42:32;;;;;;;1.52;1.30;;;;;;;23.26;38.13;96048.41;1766318;81;21030;-66
2022/06/19 07:44:59;;;;;;;1.75;1.57;;;;;;;23.34;38.20;96042.55;1736454;81;21002;-66
2022/06/19 07:50:11;;;;;;;1.67;1.42;;;;;;;23.63;39.10;96029.92;1766202;81;21553;-66
2022/06/19 07:52:42;;;;;;;1.50;1.40;;;;;;;23.78;38.33;96024.56;1766358;81;21496;-67
2022/06/19 07:55:12;;;;;;;3.95;1.52;;;;;;;23.87;36.71;96022.15;1766307;81;21090;-66
2022/06/19 07:57:39;;;;;;;2.75;1.30;;;;;;;23.96;36.89;96016.63;1766339;81;20971;-67
2022/06/19 08:00:11;;;;;;;1.42;1.32;;;;;;;24.14;38.07;96016.80;1766028;81;20982;-66
2022/06/19 08:02:37;;;;;;;1.85;1.50;;;;;;;24.27;38.71;96007.41;1765873;81;21058;-66
2022/06/19 08:05:06;;;;;;;2.60;1.47;;;;;;;24.40;38.42;96012.84;1766388;81;20963;-66
2022/06/19 08:07:32;;;;;;;2.05;1.40;;;;;;;24.44;37.68;96006.26;1766178;81;21071;-66
2022/06/19 08:09:59;;;;;;;1.25;1.15;;;;;;;24.51;36.15;96006.27;1766156;81;20967;-66
2022/06/19 08:12:26;;;;;;;2.83;1.60;;;;;;;24.59;36.88;96004.40;1766378;81;21543;-67
2022/06/19 08:14:52;;;;;;;3.05;1.50;;;;;;;24.69;36.44;95991.15;1765871;81;20992;-66
2022/06/19 08:17:19;;;;;;;1.40;1.30;;;;;;;24.76;36.03;95987.06;1766388;81;21027;-66
2022/06/19 08:19:46;;;;;;;1.65;1.32;;;;;;;24.83;36.38;95986.53;1766575;81;21030;-67
2022/06/19 08:22:13;;;;;;;4.00;1.40;;;;;;;25.02;37.57;95991.53;1766297;81;20982;-67
2022/06/19 08:24:39;;;;;;;1.60;1.50;;;;;;;25.11;36.48;95985.97;1766475;81;21021;-66
2022/06/19 08:27:07;;;;;;;2.77;1.47;;;;;;;25.25;36.69;95980.98;1766417;81;21034;-66
2022/06/19 08:29:34;;;;;;;3.92;1.50;;;;;;;25.30;37.18;95984.23;1766151;81;21018;-66
2022/06/19 08:32:02;;;;;;;2.08;1.70;;;;;;;25.43;37.82;95980.16;1766326;81;21018;-66
2022/06/19 08:34:29;;;;;;;2.25;1.25;;;;;;;25.41;36.82;95987.50;1766490;81;21015;-67
2022/06/19 08:36:58;;;;;;;3.12;1.45;;;;;;;25.46;36.82;95989.39;1766106;81;20999;-66
2022/06/19 08:39:26;;;;;;;2.05;1.20;;;;;;;25.52;36.33;95991.64;1766529;81;20974;-67
2022/06/19 08:42:31;;;;;;;1.67;1.30;;;;;;;25.65;36.16;95994.31;1766134;81;21073;-67
2022/06/19 08:45:26;;;;;;;1.57;1.47;;;;;;;25.82;36.72;95985.85;1765127;81;21006;-67
2022/06/19 08:48:13;;;;;;;1.30;1.20;;;;;;;25.97;33.37;95988.45;1766251;81;21030;-67
2022/06/19 08:50:54;;;;;;;2.77;1.60;;;;;;;26.05;33.92;95992.80;1752025;81;21491;-67
2022/06/19 08:53:53;;;;;;;2.40;1.50;;;;;;;26.15;34.52;95994.33;1766435;81;21655;-67
2022/06/19 08:56:31;;;;;;;2.22;1.47;;;;;;;26.31;33.66;95990.38;1733536;81;21006;-66
2022/06/19 08:59:09;;;;;;;1.40;1.30;;;;;;;26.43;33.59;95983.66;1765069;81;21516;-67
2022/06/19 09:01:47;;;;;;;1.52;1.27;;;;;;;26.57;32.30;95982.16;1766614;81;21036;-67
2022/06/19 09:07:38;;;;;;;1.42;1.30;;;;;;;26.66;31.13;95985.52;1766487;81;20986;-66
2022/06/19 09:10:35;;;;;;;3.75;1.45;;;;;;;26.49;31.23;95980.00;1766284;81;21017;-66
2022/06/19 09:13:25;;;;;;;1.32;1.22;;;;;;;26.67;32.11;95980.47;1766758;81;21023;-67
2022/06/19 09:16:00;;;;;;;1.50;1.10;;;;;;;26.86;31.83;95981.29;1765795;81;21006;-67
2022/06/19 09:19:11;;;;;;;1.50;1.40;;;;;;;26.82;33.05;95975.72;1766132;81;21030;-67
2022/06/19 09:21:58;;;;;;;1.55;1.32;;;;;;;26.98;32.58;95976.24;1672762;85;21034;-67
2022/06/19 09:24:56;;;;;;;1.22;1.12;;;;;;;27.08;32.26;95970.97;1672778;86;21102;-67
2022/06/19 09:27:30;;;;;;;1.60;1.30;;;;;;;27.24;31.47;95972.50;1745320;81;21078;-67
2022/06/19 09:30:12;;;;;;;1.37;1.10;;;;;;;27.44;32.32;95974.98;1766247;81;21015;-67
2022/06/19 09:32:44;;;;;;;1.42;1.32;;;;;;;27.62;31.97;95968.11;1766396;81;21022;-67
2022/06/19 09:35:28;;;;;;;3.67;1.17;;;;;;;27.66;29.30;95975.48;1765290;81;21031;-67
2022/06/19 09:38:15;;;;;;;1.70;1.60;;;;;;;27.73;30.85;95969.94;1762178;81;21030;-66
2022/06/19 09:40:45;;;;;;;1.52;1.42;;;;;;;27.91;31.07;95964.90;1724048;81;21133;-67
2022/06/19 09:43:32;;;;;;;2.75;1.12;;;;;;;28.00;30.87;95967.72;1766347;81;21038;-67
2022/06/19 09:46:03;;;;;;;1.57;1.10;;;;;;;28.06;30.81;95966.34;1766134;81;21026;-67
2022/06/19 09:48:44;;;;;;;1.75;1.15;;;;;;;28.23;30.97;95965.81;1766048;81;21058;-66
2022/06/19 09:51:31;;;;;;;1.57;1.30;;;;;;;28.29;29.87;95951.36;1715332;81;21054;-66
2022/06/19 09:54:06;;;;;;;1.37;1.22;;;;;;;28.44;31.13;95953.67;1766366;81;21484;-67
2022/06/19 09:56:43;;;;;;;2.67;1.20;;;;;;;28.51;29.66;95954.53;1766638;81;21005;-67
2022/06/19 09:59:54;;;;;;;1.30;1.20;;;;;;;28.56;29.98;95955.00;1749282;81;21073;-67
2022/06/19 10:02:35;;;;;;;1.45;1.30;;;;;;;28.36;28.37;95951.22;1766561;81;21025;-67
2022/06/19 10:05:13;;;;;;;1.57;1.15;;;;;;;28.30;29.00;95949.89;1765930;81;21556;-67
2022/06/19 10:07:51;;;;;;;1.40;1.30;;;;;;;28.52;29.85;95946.23;1765640;81;20979;-67
2022/06/19 10:10:54;;;;;;;2.10;1.20;;;;;;;28.75;29.12;95946.13;1766311;81;21078;-67
2022/06/19 10:13:40;;;;;;;1.15;1.10;;;;;;;28.87;28.61;95950.01;1766595;81;20967;-67
2022/06/19 10:16:30;;;;;;;1.82;1.25;;;;;;;29.14;29.40;95947.30;1766346;81;21006;-67
2022/06/19 10:18:59;;;;;;;1.47;1.30;;;;;;;29.22;28.91;95943.41;1766490;81;20994;-67
2022/06/19 10:24:40;;;;;;;1.77;1.30;;;;;;;28.88;26.87;95933.24;1766580;81;21029;-67
2022/06/19 10:27:18;;;;;;;1.30;1.02;;;;;;;29.16;28.26;95934.44;1766397;81;21094;-67
2022/06/19 10:30:02;;;;;;;1.32;1.22;;;;;;;29.32;28.57;95941.59;1765796;81;20991;-67
2022/06/19 10:32:52;;;;;;;1.85;1.00;;;;;;;29.11;26.20;95934.84;1766254;81;21031;-67
2022/06/19 10:35:45;;;;;;;1.15;1.05;;;;;;;29.01;27.00;95933.03;1766404;81;20985;-67
2022/06/19 10:38:42;;;;;;;2.33;1.10;;;;;;;29.06;27.21;95933.53;1766488;81;21022;-67
2022/06/19 10:44:47;;;;;;;1.67;1.20;;;;;;;29.19;26.51;95930.09;1766372;81;21034;-66
2022/06/19 10:47:28;;;;;;;1.42;1.10;;;;;;;29.26;27.79;95928.56;1766174;81;21536;-66
2022/06/19 10:50:34;;;;;;;1.20;1.10;;;;;;;29.52;27.92;95928.10;1766487;81;21053;-67
2022/06/19 10:53:33;;;;;;;2.67;1.50;;;;;;;29.68;26.77;95921.67;1766667;81;21038;-67
2022/06/19 10:56:31;;;;;;;1.72;1.20;;;;;;;29.87;27.38;95915.44;1766453;81;21014;-66
2022/06/19 10:58:59;;;;;;;1.60;1.20;;;;;;;30.01;26.61;95914.67;1765648;81;21010;-66
2022/06/19 11:04:24;;;;;;;1.50;1.27;;;;;;;30.09;26.33;95903.47;1766385;81;21002;-67
2022/06/19 11:07:16;;;;;;;2.05;1.10;;;;;;;30.08;26.43;95911.25;1766388;81;21518;-67
2022/06/19 11:09:47;;;;;;;3.60;1.45;;;;;;;30.23;27.51;95913.57;1766403;81;20975;-67
2022/06/19 11:12:37;;;;;;;2.12;1.20;;;;;;;30.48;26.49;95904.88;1766337;81;20979;-67
2022/06/19 11:15:09;;;;;;;1.55;1.40;;;;;;;30.69;25.98;95912.02;1766278;81;20994;-67
2022/06/19 11:17:40;;;;;;;1.67;1.20;;;;;;;30.84;26.11;95902.43;1766475;81;21536;-67
2022/06/19 11:20:28;;;;;;;1.55;1.35;;;;;;;30.92;25.13;95899.86;1766404;81;21025;-67
2022/06/19 11:23:09;;;;;;;2.95;1.30;;;;;;;30.96;26.31;95902.63;1766634;81;21050;-67
2022/06/19 11:25:40;;;;;;;1.27;1.17;;;;;;;30.79;24.12;95900.61;1762943;81;21073;-67
2022/06/19 11:28:12;;;;;;;1.20;1.10;;;;;;;30.44;24.44;95894.41;1766209;81;21026;-66
2022/06/19 11:30:53;;;;;;;1.55;1.45;;;;;;;30.37;23.87;95890.91;1766522;81;21045;-66
2022/06/19 11:33:33;;;;;;;1.30;1.20;;;;;;;30.04;24.74;95888.54;1762975;81;21078;-67
2022/06/19 11:36:12;;;;;;;1.37;1.10;;;;;;;30.00;25.25;95893.41;1766431;81;21026;-66
2022/06/19 11:38:49;;;;;;;2.40;1.05;;;;;;;30.39;27.43;95887.55;1766365;81;21073;-66
2022/06/19 11:41:30;;;;;;;2.77;1.00;;;;;;;30.66;26.26;95890.53;1766416;81;21073;-66
2022/06/19 11:44:14;;;;;;;1.75;1.20;;;;;;;30.82;25.82;95881.31;1766341;81;21030;-67
2022/06/19 11:46:54;;;;;;;1.67;1.57;;;;;;;31.04;26.10;95875.49;1765191;81;21038;-67
2022/06/19 11:49:31;;;;;;;1.40;1.30;;;;;;;31.27;25.74;95875.13;1760558;81;21509;-67
2022/06/19 11:52:05;;;;;;;2.58;1.20;;;;;;;31.41;24.38;95882.02;1762620;81;21536;-67
2022/06/19 11:54:40;;;;;;;1.62;1.10;;;;;;;31.42;24.60;95881.00;1762540;81;21054;-67
2022/06/19 11:57:15;;;;;;;2.42;1.10;;;;;;;31.30;25.23;95882.16;1762733;81;21023;-66
2022/06/19 11:59:45;;;;;;;2.00;1.10;;;;;;;31.42;25.08;95880.48;1760131;81;21026;-67
2022/06/19 12:02:37;;;;;;;1.40;1.30;;;;;;;31.67;24.62;95875.35;1762429;81;21071;-67
2022/06/19 12:05:10;;;;;;;2.98;1.20;;;;;;;31.81;24.28;95867.18;1762849;81;21002;-67
2022/06/19 12:07:38;;;;;;;;;;;;;;;31.93;23.15;95865.95;1757687;81;21535;-67
2022/06/19 12:10:19;;;;;;;1.95;1.67;;;;;;;32.17;23.86;95864.52;1762994;81;20122;-67
2022/06/19 12:12:58;;;;;;;2.05;1.80;;;;;;;32.31;22.00;95864.84;1762200;81;21019;-67
2022/06/19 12:15:31;;;;;;;1.90;1.72;;;;;;;32.34;21.99;95859.58;1762534;81;21074;-67
2022/06/19 12:18:00;;;;;;;;;;;;;;;32.29;22.74;95855.94;1765142;81;21563;-67
2022/06/19 12:20:31;;;;;;;3.22;1.45;;;;;;;32.82;22.04;95860.18;1762176;81;20408;-67